createdAt,value
2018-03-03T00:00:16.059Z,19.50
2018-03-03T00:03:02.008Z,19.50
2018-03-03T00:05:29.567Z,19.50
2018-03-03T00:07:57.132Z,19.40
2018-03-03T00:10:25.039Z,19.40
2018-03-03T00:12:52.598Z,19.40
2018-03-03T00:15:20.145Z,19.40
2018-03-03T00:17:47.712Z,19.30
2018-03-03T00:20:15.261Z,19.30
2018-03-03T00:22:42.821Z,19.30
2018-03-03T00:25:10.414Z,19.30
2018-03-03T00:27:46.727Z,19.20
2018-03-03T00:30:14.312Z,19.20
2018-03-03T00:32:41.884Z,19.20
2018-03-03T00:35:09.442Z,19.20
2018-03-03T00:37:37.013Z,19.10
2018-03-03T00:40:27.687Z,19.10
2018-03-03T00:42:55.246Z,19.10
2018-03-03T00:45:22.801Z,19.10
2018-03-03T00:47:50.357Z,19.10
2018-03-03T00:50:17.985Z,19.00
2018-03-03T00:53:07.049Z,19.00
2018-03-03T00:55:34.620Z,19.00
2018-03-03T00:58:02.172Z,18.90
2018-03-03T01:00:30.057Z,19.00
2018-03-03T01:02:57.690Z,19.00
2018-03-03T01:05:25.255Z,18.90
2018-03-03T01:07:52.802Z,18.90
2018-03-03T01:10:21.131Z,18.90
2018-03-03T01:12:48.691Z,18.90
2018-03-03T01:15:16.248Z,18.90
2018-03-03T01:17:51.594Z,18.90
2018-03-03T01:20:19.157Z,18.80
2018-03-03T01:22:46.743Z,18.80
2018-03-03T01:25:14.314Z,18.80
2018-03-03T01:27:41.895Z,18.70
2018-03-03T01:30:32.776Z,18.70
2018-03-03T01:33:00.320Z,18.70
2018-03-03T01:35:27.870Z,18.70
2018-03-03T01:37:55.441Z,18.70
2018-03-03T01:40:23.000Z,18.70
2018-03-03T01:43:08.050Z,18.70
2018-03-03T01:45:35.615Z,18.70
2018-03-03T01:48:03.215Z,18.60
2018-03-03T01:50:30.805Z,18.60
2018-03-03T01:52:58.347Z,18.60
2018-03-03T01:55:26.667Z,18.50
2018-03-03T01:57:54.246Z,18.50
2018-03-03T02:00:21.814Z,18.50
2018-03-03T02:02:50.144Z,18.50
2018-03-03T02:05:17.706Z,18.50
2018-03-03T02:07:52.440Z,18.50
2018-03-03T02:10:19.992Z,18.50
2018-03-03T02:12:47.556Z,18.40
2018-03-03T02:15:15.105Z,18.40
2018-03-03T02:17:43.451Z,18.40
2018-03-03T02:20:35.594Z,18.40
2018-03-03T02:23:03.167Z,18.40
2018-03-03T02:25:31.482Z,18.30
2018-03-03T02:27:59.039Z,18.30
2018-03-03T02:30:26.621Z,18.30
2018-03-03T02:33:11.181Z,18.30
2018-03-03T02:35:38.763Z,18.30
2018-03-03T02:38:06.372Z,18.30
2018-03-03T02:40:34.404Z,18.20
2018-03-03T02:43:01.967Z,18.20
2018-03-03T02:45:29.523Z,18.20
2018-03-03T02:47:57.082Z,18.20
2018-03-03T02:50:24.666Z,18.20
2018-03-03T02:52:52.983Z,18.20
2018-03-03T02:55:20.535Z,18.10
2018-03-03T02:57:56.032Z,18.10
2018-03-03T03:00:24.372Z,18.10
2018-03-03T03:02:51.921Z,18.10
2018-03-03T03:05:19.486Z,18.10
2018-03-03T03:07:47.035Z,18.10
2018-03-03T03:10:36.833Z,18.10
2018-03-03T03:13:04.388Z,18.10
2018-03-03T03:15:31.939Z,18.00
2018-03-03T03:17:59.497Z,18.00
2018-03-03T03:20:27.094Z,18.00
2018-03-03T03:23:16.034Z,18.00
2018-03-03T03:25:43.582Z,18.00
2018-03-03T03:28:11.150Z,18.00
2018-03-03T03:30:39.356Z,17.90
2018-03-03T03:33:06.920Z,18.00
2018-03-03T03:35:34.461Z,18.00
2018-03-03T03:38:02.040Z,17.90
2018-03-03T03:40:29.592Z,17.90
2018-03-03T03:42:57.155Z,17.90
2018-03-03T03:45:24.743Z,17.90
2018-03-03T03:47:59.879Z,17.90
2018-03-03T03:50:27.456Z,17.80
2018-03-03T03:52:55.772Z,17.80
2018-03-03T03:55:23.324Z,17.80
2018-03-03T03:57:50.891Z,17.80
2018-03-03T04:00:40.215Z,17.80
2018-03-03T04:03:07.783Z,17.80
2018-03-03T04:05:36.106Z,17.80
2018-03-03T04:08:03.647Z,17.80
2018-03-03T04:10:31.263Z,17.80
2018-03-03T04:13:19.748Z,17.70
2018-03-03T04:15:48.094Z,17.70
2018-03-03T04:18:15.673Z,17.70
2018-03-03T04:20:44.845Z,17.70
2018-03-03T04:26:02.383Z,17.70
2018-03-03T04:28:30.709Z,17.70
2018-03-03T04:30:59.757Z,17.80
2018-03-03T04:33:27.499Z,17.80
2018-03-03T04:35:55.051Z,17.80
2018-03-03T04:38:22.597Z,17.90
2018-03-03T04:40:50.155Z,17.90
2018-03-03T04:43:18.466Z,18.10
2018-03-03T04:45:46.801Z,18.10
2018-03-03T04:48:29.044Z,18.20
2018-03-03T04:50:56.880Z,18.20
2018-03-03T04:53:25.214Z,18.30
2018-03-03T04:55:52.790Z,18.30
2018-03-03T04:58:36.024Z,18.40
2018-03-03T05:01:12.508Z,18.50
2018-03-03T05:03:56.627Z,18.70
2018-03-03T05:06:40.976Z,18.60
2018-03-03T05:09:23.527Z,18.60
2018-03-03T05:11:51.860Z,18.70
2018-03-03T05:14:20.026Z,18.60
2018-03-03T05:16:59.455Z,18.60
2018-03-03T05:22:19.727Z,18.70
2018-03-03T05:24:55.520Z,18.60
2018-03-03T05:27:28.797Z,18.60
2018-03-03T05:32:45.185Z,18.60
2018-03-03T05:38:37.773Z,18.60
2018-03-03T05:41:20.858Z,18.60
2018-03-03T05:43:54.247Z,18.60
2018-03-03T05:46:47.633Z,18.60
2018-03-03T05:49:33.929Z,18.70
2018-03-03T05:52:22.267Z,18.70
2018-03-03T05:54:55.641Z,18.80
2018-03-03T05:57:28.856Z,18.80
2018-03-03T06:00:02.205Z,18.90
2018-03-03T06:02:35.386Z,18.80
2018-03-03T06:05:21.728Z,18.80
2018-03-03T06:07:59.187Z,18.80
2018-03-03T06:10:26.771Z,18.80
2018-03-03T06:12:54.324Z,18.80
2018-03-03T06:15:22.642Z,18.80
2018-03-03T06:17:50.216Z,18.80
2018-03-03T06:20:21.634Z,18.80
2018-03-03T06:22:49.231Z,18.70
2018-03-03T06:25:16.813Z,18.80
2018-03-03T06:27:45.140Z,18.80
2018-03-03T06:30:12.716Z,18.80
2018-03-03T06:33:01.745Z,18.80
2018-03-03T06:35:29.641Z,18.80
2018-03-03T06:37:57.196Z,18.80
2018-03-03T06:40:24.765Z,18.80
2018-03-03T06:42:52.314Z,18.80
2018-03-03T06:45:19.871Z,18.80
2018-03-03T06:47:47.441Z,18.90
2018-03-03T06:50:14.982Z,18.90
2018-03-03T06:52:42.541Z,18.90
2018-03-03T06:55:10.101Z,19.00
2018-03-03T06:57:44.762Z,18.90
2018-03-03T07:00:12.327Z,18.90
2018-03-03T07:02:40.050Z,18.90
2018-03-03T07:05:07.610Z,18.90
2018-03-03T07:07:35.170Z,19.00
2018-03-03T07:10:24.123Z,18.90
2018-03-03T07:12:51.702Z,18.90
2018-03-03T07:15:19.306Z,18.90
2018-03-03T07:17:46.872Z,19.00
2018-03-03T07:20:15.214Z,18.90
2018-03-03T07:23:04.161Z,19.00
2018-03-03T07:25:32.026Z,19.00
2018-03-03T07:28:00.416Z,19.10
2018-03-03T07:30:27.979Z,19.10
2018-03-03T07:32:55.550Z,19.10
2018-03-03T07:35:23.101Z,19.20
2018-03-03T07:37:51.413Z,19.30
2018-03-03T07:40:18.990Z,19.30
2018-03-03T07:42:46.566Z,19.40
2018-03-03T07:45:14.114Z,19.50
2018-03-03T07:47:49.569Z,19.50
2018-03-03T07:50:17.138Z,19.50
2018-03-03T07:52:44.985Z,19.50
2018-03-03T07:55:13.305Z,19.50
2018-03-03T07:57:40.929Z,19.50
2018-03-03T08:00:26.517Z,19.50
2018-03-03T08:02:54.070Z,19.50
2018-03-03T08:05:23.113Z,19.60
2018-03-03T08:07:50.694Z,19.60
2018-03-03T08:10:18.254Z,19.70
2018-03-03T08:13:06.780Z,19.70
2018-03-03T08:15:34.686Z,19.70
2018-03-03T08:18:02.238Z,19.70
2018-03-03T08:20:29.832Z,19.80
2018-03-03T08:22:58.149Z,19.80
2018-03-03T08:25:25.697Z,19.70
2018-03-03T08:27:53.257Z,19.80
2018-03-03T08:30:20.814Z,19.80
2018-03-03T08:32:48.391Z,19.80
2018-03-03T08:35:15.984Z,19.70
2018-03-03T08:37:51.509Z,19.70
2018-03-03T08:40:19.077Z,19.70
2018-03-03T08:42:46.624Z,19.70
2018-03-03T08:45:14.204Z,19.70
2018-03-03T08:47:41.763Z,19.80
2018-03-03T08:50:31.367Z,19.80
2018-03-03T08:53:20.584Z,19.90
2018-03-03T08:55:48.139Z,19.90
2018-03-03T09:01:40.952Z,20.10
2018-03-03T09:04:08.517Z,20.10
2018-03-03T09:09:58.915Z,20.30
2018-03-03T09:12:26.506Z,20.40
2018-03-03T09:18:43.702Z,20.40
2018-03-03T09:28:46.619Z,20.40
2018-03-03T09:35:02.749Z,20.50
2018-03-03T09:40:51.499Z,20.50
2018-03-03T09:43:19.818Z,20.60
2018-03-03T09:45:47.378Z,20.50
2018-03-03T09:48:49.961Z,20.60
2018-03-03T09:51:17.519Z,20.70
2018-03-03T09:53:45.110Z,20.80
2018-03-03T09:56:12.672Z,20.80
2018-03-03T09:58:40.237Z,20.90
2018-03-03T10:01:07.817Z,20.90
2018-03-03T10:03:36.160Z,20.90
2018-03-03T10:06:03.706Z,21.00
2018-03-03T10:09:07.624Z,20.90
2018-03-03T10:11:35.182Z,21.00
2018-03-03T10:14:02.727Z,20.90
2018-03-03T10:16:30.307Z,21.00
2018-03-03T10:22:19.322Z,21.00
2018-03-03T10:28:07.880Z,21.10
2018-03-03T10:30:35.434Z,21.10
2018-03-03T10:39:47.628Z,21.10
2018-03-03T10:42:15.958Z,21.10
2018-03-03T10:44:43.515Z,21.10
2018-03-03T10:47:11.961Z,21.10
2018-03-03T10:49:53.753Z,21.20
2018-03-03T10:52:22.087Z,21.30
2018-03-03T10:54:49.648Z,21.30
2018-03-03T11:18:17.339Z,21.60
2018-03-03T11:20:44.908Z,21.60
2018-03-03T11:26:41.586Z,21.70
2018-03-03T11:32:52.824Z,21.60
2018-03-03T11:39:09.765Z,21.60
2018-03-03T11:45:23.591Z,21.60
2018-03-03T12:09:11.062Z,21.50
2018-03-03T12:24:57.899Z,21.50
2018-03-03T12:31:07.923Z,21.40
2018-03-03T12:33:35.484Z,21.40
2018-03-03T12:39:25.307Z,21.40
2018-03-03T14:19:05.112Z,20.70
2018-03-03T14:21:32.673Z,20.70
2018-03-03T14:24:00.258Z,20.70
2018-03-03T14:26:27.837Z,20.70
2018-03-03T14:28:59.788Z,20.70
2018-03-03T14:31:27.371Z,20.70
2018-03-03T14:33:55.692Z,20.70
2018-03-03T14:36:23.251Z,20.70
2018-03-03T14:38:50.821Z,20.70
2018-03-03T14:41:18.377Z,20.70
2018-03-03T14:43:45.941Z,20.70
2018-03-03T14:46:13.509Z,20.80
2018-03-03T14:48:41.060Z,20.70
2018-03-03T14:51:08.621Z,20.70
2018-03-03T14:53:36.192Z,20.70
2018-03-03T14:56:03.738Z,20.70
2018-03-03T14:58:31.282Z,20.70
2018-03-03T15:00:58.855Z,20.70
2018-03-03T15:03:26.439Z,20.70
2018-03-03T15:05:54.046Z,20.60
2018-03-03T15:08:21.630Z,20.60
2018-03-03T15:10:49.465Z,20.60
2018-03-03T15:13:17.785Z,20.60
2018-03-03T15:15:45.360Z,20.60
2018-03-03T15:18:12.915Z,20.60
2018-03-03T15:20:40.480Z,20.60
2018-03-03T15:23:08.055Z,20.70
2018-03-03T15:25:35.610Z,20.70
2018-03-03T15:28:03.176Z,20.80
2018-03-03T15:30:34.633Z,20.80
2018-03-03T15:33:02.199Z,20.80
2018-03-03T15:35:30.532Z,20.80
2018-03-03T15:37:58.121Z,20.80
2018-03-03T15:40:25.665Z,20.70
2018-03-03T15:43:00.202Z,20.70
2018-03-03T15:45:27.771Z,20.70
2018-03-03T15:47:55.332Z,20.60
2018-03-03T15:50:29.978Z,20.70
2018-03-03T15:53:05.635Z,20.60
2018-03-03T15:55:33.966Z,20.60
2018-03-03T15:58:01.532Z,20.60
2018-03-03T16:00:29.090Z,20.60
2018-03-03T16:02:56.669Z,20.70
2018-03-03T16:05:24.236Z,20.70
2018-03-03T16:11:13.132Z,20.70
2018-03-03T16:13:41.486Z,20.70
2018-03-03T16:19:30.077Z,20.70
2018-03-03T16:22:20.339Z,20.70
2018-03-03T16:24:48.248Z,20.70
2018-03-03T16:27:24.167Z,20.70
2018-03-03T16:29:51.736Z,20.70
2018-03-03T16:35:48.408Z,20.70
2018-03-03T16:38:15.974Z,20.70
2018-03-03T16:44:05.236Z,20.70
2018-03-03T16:46:32.793Z,20.70
2018-03-03T16:49:00.403Z,20.70
2018-03-03T16:51:27.981Z,20.70
2018-03-03T16:53:55.554Z,20.70
2018-03-03T16:56:23.123Z,20.80
2018-03-03T16:58:50.691Z,20.80
2018-03-03T17:01:18.250Z,20.80
2018-03-03T17:03:45.821Z,20.70
2018-03-03T17:06:13.384Z,20.80
2018-03-03T17:08:40.949Z,21.20
2018-03-03T17:11:08.507Z,21.40
2018-03-03T17:13:36.071Z,21.50
2018-03-03T17:16:03.615Z,21.60
2018-03-03T17:18:31.172Z,21.70
2018-03-03T17:20:58.730Z,21.70
2018-03-03T17:23:26.281Z,21.70
2018-03-03T17:25:53.829Z,21.70
2018-03-03T17:28:23.000Z,21.20
2018-03-03T17:30:50.552Z,21.20
2018-03-03T17:33:18.104Z,21.10
2018-03-03T17:35:45.697Z,21.10
2018-03-03T17:38:14.015Z,21.00
2018-03-03T17:40:41.570Z,21.00
2018-03-03T17:43:09.128Z,21.00
2018-03-03T17:45:36.692Z,21.00
2018-03-03T17:48:04.233Z,21.00
2018-03-03T17:50:31.798Z,21.00
2018-03-03T17:52:59.364Z,21.00
2018-03-03T17:55:27.675Z,21.00
2018-03-03T17:57:55.488Z,20.90
2018-03-03T18:00:23.792Z,20.90
2018-03-03T18:02:51.345Z,20.80
2018-03-03T18:05:18.914Z,20.90
2018-03-03T18:07:46.462Z,21.00
2018-03-03T18:10:14.020Z,21.00
2018-03-03T18:12:41.577Z,21.00
2018-03-03T18:15:09.901Z,21.00
2018-03-03T18:17:37.458Z,21.00
2018-03-03T18:20:05.032Z,21.00
2018-03-03T18:22:32.583Z,21.00
2018-03-03T18:25:00.197Z,20.90
2018-03-03T18:27:28.518Z,20.90
2018-03-03T18:29:56.084Z,20.90
2018-03-03T18:32:23.626Z,20.90
2018-03-03T18:34:51.177Z,21.00
2018-03-03T18:37:18.723Z,21.00
2018-03-03T18:39:46.269Z,21.00
2018-03-03T18:42:14.613Z,21.00
2018-03-03T18:44:42.171Z,20.90
2018-03-03T18:47:09.709Z,20.90
2018-03-03T18:49:37.266Z,20.90
2018-03-03T18:52:04.807Z,20.90
2018-03-03T18:54:32.343Z,20.90
2018-03-03T18:57:00.683Z,20.90
2018-03-03T18:59:28.235Z,20.80
2018-03-03T19:01:55.779Z,20.80
2018-03-03T19:04:23.347Z,20.90
2018-03-03T19:13:36.266Z,20.80
2018-03-03T19:16:03.824Z,20.80
2018-03-03T19:18:31.376Z,20.80
2018-03-03T19:20:58.938Z,20.90
2018-03-03T19:23:26.479Z,20.80
2018-03-03T19:25:54.031Z,20.80
2018-03-03T19:28:21.605Z,20.80
2018-03-03T19:30:49.201Z,20.80
2018-03-03T19:33:17.518Z,20.90
2018-03-03T19:35:45.067Z,20.90
2018-03-03T19:38:12.606Z,20.90
2018-03-03T19:40:40.920Z,20.90
2018-03-03T19:43:08.494Z,20.80
2018-03-03T19:45:36.818Z,20.90
2018-03-03T19:48:05.147Z,20.80
2018-03-03T19:50:32.706Z,20.80
2018-03-03T19:53:00.270Z,21.10
2018-03-03T19:55:27.819Z,21.30
2018-03-03T19:57:55.377Z,21.30
2018-03-03T20:00:22.919Z,21.10
2018-03-03T20:02:50.511Z,21.00
2018-03-03T20:05:18.074Z,21.00
2018-03-03T20:07:52.750Z,21.00
2018-03-03T20:10:21.088Z,21.00
2018-03-03T20:12:48.663Z,21.00
2018-03-03T20:15:16.202Z,20.90
2018-03-03T20:17:43.761Z,20.90
2018-03-03T20:20:11.315Z,20.90
2018-03-03T20:22:38.865Z,20.80
2018-03-03T20:25:06.423Z,20.80
2018-03-03T20:27:33.976Z,20.70
2018-03-03T20:30:01.523Z,20.70
2018-03-03T20:32:29.093Z,20.70
2018-03-03T20:34:56.650Z,20.70
2018-03-03T20:37:24.205Z,20.70
2018-03-03T20:39:51.777Z,20.70
2018-03-03T20:42:19.346Z,20.60
2018-03-03T20:44:46.892Z,20.70
2018-03-03T20:47:14.463Z,20.60
2018-03-03T20:49:42.010Z,20.70
2018-03-03T20:52:09.563Z,20.70
2018-03-03T20:54:37.891Z,20.60
2018-03-03T20:57:06.194Z,20.60
2018-03-03T20:59:33.778Z,20.60
2018-03-03T21:02:02.413Z,20.60
2018-03-03T21:04:29.952Z,20.60
2018-03-03T21:06:57.509Z,20.60
2018-03-03T21:09:25.082Z,20.60
2018-03-03T21:11:57.297Z,20.60
2018-03-03T21:14:24.856Z,20.60
2018-03-03T21:16:52.404Z,20.60
2018-03-03T21:19:19.959Z,20.60
2018-03-03T21:21:47.492Z,20.60
2018-03-03T21:24:15.060Z,20.60
2018-03-03T21:26:42.608Z,20.60
2018-03-03T21:29:10.172Z,20.60
2018-03-03T21:31:37.738Z,20.60
2018-03-03T21:34:05.319Z,20.60
2018-03-03T21:36:32.870Z,20.60
2018-03-03T21:39:00.431Z,20.50
2018-03-03T21:41:27.982Z,20.60
2018-03-03T21:43:55.529Z,20.50
2018-03-03T21:46:23.077Z,20.50
2018-03-03T21:48:50.633Z,20.50
2018-03-03T21:51:18.185Z,20.40
2018-03-03T21:53:46.505Z,20.40
2018-03-03T21:56:14.044Z,20.40
2018-03-03T21:58:41.600Z,20.30
2018-03-03T22:01:09.172Z,20.40
2018-03-03T22:03:36.712Z,20.30
2018-03-03T22:06:04.290Z,20.30
2018-03-03T22:08:31.830Z,20.30
2018-03-03T22:10:59.377Z,20.30
2018-03-03T22:13:27.692Z,20.20
2018-03-03T22:15:55.261Z,20.20
2018-03-03T22:18:22.816Z,20.20
2018-03-03T22:20:50.375Z,20.20
2018-03-03T22:23:17.952Z,20.20
2018-03-03T22:25:45.498Z,20.10
2018-03-03T22:28:13.042Z,20.10
2018-03-03T22:30:40.618Z,20.00
2018-03-03T22:33:08.165Z,20.00
2018-03-03T22:35:35.715Z,20.00
2018-03-03T22:38:03.284Z,20.00
2018-03-03T22:40:30.839Z,20.00
2018-03-03T22:42:58.418Z,19.90
2018-03-03T22:45:25.989Z,19.90
2018-03-03T22:47:53.537Z,19.90
2018-03-03T22:50:21.087Z,19.90
2018-03-03T22:52:48.643Z,19.90
2018-03-03T22:59:51.866Z,19.80
2018-03-03T23:02:19.418Z,19.70
2018-03-03T23:04:46.979Z,19.70
2018-03-03T23:07:15.311Z,19.70
2018-03-03T23:09:42.862Z,19.70
2018-03-03T23:12:10.399Z,19.60
2018-03-03T23:14:37.952Z,19.70
2018-03-03T23:17:05.494Z,19.60
2018-03-03T23:19:33.807Z,19.50
2018-03-03T23:22:01.382Z,19.50
2018-03-03T23:24:28.924Z,19.50
2018-03-03T23:26:56.506Z,19.50
2018-03-03T23:29:24.088Z,19.50
2018-03-03T23:31:51.637Z,19.50
2018-03-03T23:34:19.182Z,19.50
2018-03-03T23:36:46.735Z,19.40
2018-03-03T23:39:14.273Z,19.40
2018-03-03T23:41:41.814Z,19.40
2018-03-03T23:44:10.178Z,19.40
2018-03-03T23:46:37.694Z,19.40
2018-03-03T23:49:05.261Z,19.40
2018-03-03T23:51:32.826Z,19.40
2018-03-03T23:54:00.370Z,19.40
2018-03-03T23:56:27.922Z,19.40
2018-03-03T23:58:55.481Z,19.40
